sensor_id;sensor_type;location;lat;lon;timestamp;P1;durP1;ratioP1;P2;durP2;ratioP2
60502;SDS011;51448;51.660;5.824;2023-02-21T00:02:38;68.60;;;45.85;;
60502;SDS011;51448;51.660;5.824;2023-02-21T00:05:25;73.03;;;46.38;;
60502;SDS011;51448;51.660;5.824;2023-02-21T00:08:11;80.07;;;49.88;;
60502;SDS011;51448;51.660;5.824;2023-02-21T00:10:57;77.68;;;49.55;;
60502;SDS011;51448;51.660;5.824;2023-02-21T00:13:44;75.95;;;48.15;;
60502;SDS011;51448;51.660;5.824;2023-02-21T00:16:30;86.93;;;55.45;;
60502;SDS011;51448;51.660;5.824;2023-02-21T00:19:16;82.55;;;54.15;;
60502;SDS011;51448;51.660;5.824;2023-02-21T00:22:02;84.90;;;50.72;;
60502;SDS011;51448;51.660;5.824;2023-02-21T00:24:48;85.10;;;51.40;;
60502;SDS011;51448;51.660;5.824;2023-02-21T00:27:35;82.88;;;52.47;;
60502;SDS011;51448;51.660;5.824;2023-02-21T00:30:21;85.25;;;54.53;;
60502;SDS011;51448;51.660;5.824;2023-02-21T00:33:08;88.53;;;51.90;;
60502;SDS011;51448;51.660;5.824;2023-02-21T00:35:55;86.15;;;53.42;;
60502;SDS011;51448;51.660;5.824;2023-02-21T00:38:41;87.03;;;54.95;;
60502;SDS011;51448;51.660;5.824;2023-02-21T00:41:28;86.80;;;52.72;;
60502;SDS011;51448;51.660;5.824;2023-02-21T00:44:14;89.68;;;53.63;;
60502;SDS011;51448;51.660;5.824;2023-02-21T00:47:00;90.85;;;53.30;;
60502;SDS011;51448;51.660;5.824;2023-02-21T00:49:46;87.28;;;52.15;;
60502;SDS011;51448;51.660;5.824;2023-02-21T00:52:33;92.40;;;55.25;;
60502;SDS011;51448;51.660;5.824;2023-02-21T00:55:19;87.47;;;51.78;;
60502;SDS011;51448;51.660;5.824;2023-02-21T00:58:05;87.93;;;51.72;;
60502;SDS011;51448;51.660;5.824;2023-02-21T01:00:52;87.05;;;52.40;;
60502;SDS011;51448;51.660;5.824;2023-02-21T01:03:38;90.55;;;52.13;;
60502;SDS011;51448;51.660;5.824;2023-02-21T01:06:24;85.72;;;51.70;;
60502;SDS011;51448;51.660;5.824;2023-02-21T01:09:11;93.07;;;55.08;;
60502;SDS011;51448;51.660;5.824;2023-02-21T01:11:58;93.18;;;52.50;;
60502;SDS011;51448;51.660;5.824;2023-02-21T01:14:44;102.65;;;56.47;;
60502;SDS011;51448;51.660;5.824;2023-02-21T01:17:30;91.20;;;52.80;;
60502;SDS011;51448;51.660;5.824;2023-02-21T01:20:16;99.95;;;55.13;;
60502;SDS011;51448;51.660;5.824;2023-02-21T01:23:03;95.72;;;54.42;;
60502;SDS011;51448;51.660;5.824;2023-02-21T01:25:50;93.03;;;53.03;;
60502;SDS011;51448;51.660;5.824;2023-02-21T01:28:36;90.13;;;52.13;;
60502;SDS011;51448;51.660;5.824;2023-02-21T01:31:24;101.47;;;53.30;;
60502;SDS011;51448;51.660;5.824;2023-02-21T01:34:12;95.35;;;53.85;;
60502;SDS011;51448;51.660;5.824;2023-02-21T01:37:01;97.57;;;53.80;;
60502;SDS011;51448;51.660;5.824;2023-02-21T01:39:48;102.05;;;53.70;;
60502;SDS011;51448;51.660;5.824;2023-02-21T01:42:35;106.40;;;56.05;;
60502;SDS011;51448;51.660;5.824;2023-02-21T01:48:09;104.88;;;58.25;;
60502;SDS011;51448;51.660;5.824;2023-02-21T01:51:03;99.50;;;55.80;;
60502;SDS011;51448;51.660;5.824;2023-02-21T01:53:53;99.70;;;55.25;;
60502;SDS011;51448;51.660;5.824;2023-02-21T01:56:40;97.75;;;55.75;;
60502;SDS011;51448;51.660;5.824;2023-02-21T01:59:26;101.30;;;55.75;;
60502;SDS011;51448;51.660;5.824;2023-02-21T02:02:17;103.10;;;56.08;;
60502;SDS011;51448;51.660;5.824;2023-02-21T02:05:10;105.57;;;56.40;;
60502;SDS011;51448;51.660;5.824;2023-02-21T02:07:58;105.28;;;57.38;;
60502;SDS011;51448;51.660;5.824;2023-02-21T02:10:44;96.40;;;53.28;;
60502;SDS011;51448;51.660;5.824;2023-02-21T02:22:16;99.40;;;53.97;;
60502;SDS011;51448;51.660;5.824;2023-02-21T02:25:23;106.25;;;55.33;;
60502;SDS011;51448;51.660;5.824;2023-02-21T02:37:11;103.57;;;54.58;;
60502;SDS011;51448;51.660;5.824;2023-02-21T02:46:26;104.45;;;53.15;;
60502;SDS011;51448;51.660;5.824;2023-02-21T02:49:08;99.18;;;53.67;;
60502;SDS011;51448;51.660;5.824;2023-02-21T02:51:49;101.50;;;52.35;;
60502;SDS011;51448;51.660;5.824;2023-02-21T02:54:21;102.45;;;52.78;;
60502;SDS011;51448;51.660;5.824;2023-02-21T02:56:49;97.15;;;51.47;;
60502;SDS011;51448;51.660;5.824;2023-02-21T02:59:18;102.20;;;53.40;;
60502;SDS011;51448;51.660;5.824;2023-02-21T03:05:18;102.85;;;52.00;;
60502;SDS011;51448;51.660;5.824;2023-02-21T03:08:49;102.32;;;53.08;;
60502;SDS011;51448;51.660;5.824;2023-02-21T03:11:29;102.90;;;52.55;;
60502;SDS011;51448;51.660;5.824;2023-02-21T03:14:03;97.40;;;51.80;;
60502;SDS011;51448;51.660;5.824;2023-02-21T03:16:41;105.15;;;52.00;;
60502;SDS011;51448;51.660;5.824;2023-02-21T03:19:19;107.70;;;54.20;;
60502;SDS011;51448;51.660;5.824;2023-02-21T03:21:55;104.55;;;51.97;;
60502;SDS011;51448;51.660;5.824;2023-02-21T03:24:29;104.03;;;54.03;;
60502;SDS011;51448;51.660;5.824;2023-02-21T03:27:02;100.90;;;51.85;;
60502;SDS011;51448;51.660;5.824;2023-02-21T03:29:52;107.82;;;51.40;;
60502;SDS011;51448;51.660;5.824;2023-02-21T03:32:33;105.82;;;52.45;;
60502;SDS011;51448;51.660;5.824;2023-02-21T03:35:07;106.35;;;52.03;;
60502;SDS011;51448;51.660;5.824;2023-02-21T03:37:38;101.63;;;50.05;;
60502;SDS011;51448;51.660;5.824;2023-02-21T03:40:27;108.18;;;52.88;;
60502;SDS011;51448;51.660;5.824;2023-02-21T03:43:00;110.57;;;50.60;;
60502;SDS011;51448;51.660;5.824;2023-02-21T03:48:13;109.13;;;52.50;;
60502;SDS011;51448;51.660;5.824;2023-02-21T03:50:50;107.20;;;51.15;;
60502;SDS011;51448;51.660;5.824;2023-02-21T03:53:19;96.90;;;50.80;;
60502;SDS011;51448;51.660;5.824;2023-02-21T03:55:47;103.90;;;50.95;;
60502;SDS011;51448;51.660;5.824;2023-02-21T03:58:20;106.75;;;51.95;;
60502;SDS011;51448;51.660;5.824;2023-02-21T04:00:48;109.15;;;52.35;;
60502;SDS011;51448;51.660;5.824;2023-02-21T04:03:17;107.43;;;51.13;;
60502;SDS011;51448;51.660;5.824;2023-02-21T04:05:53;109.70;;;53.22;;
60502;SDS011;51448;51.660;5.824;2023-02-21T04:08:21;108.10;;;49.95;;
60502;SDS011;51448;51.660;5.824;2023-02-21T04:10:49;105.13;;;51.00;;
60502;SDS011;51448;51.660;5.824;2023-02-21T04:13:21;110.45;;;51.88;;
60502;SDS011;51448;51.660;5.824;2023-02-21T04:15:51;104.10;;;50.83;;
60502;SDS011;51448;51.660;5.824;2023-02-21T04:18:20;123.07;;;52.08;;
60502;SDS011;51448;51.660;5.824;2023-02-21T04:20:50;110.85;;;51.67;;
60502;SDS011;51448;51.660;5.824;2023-02-21T04:23:19;107.57;;;52.92;;
60502;SDS011;51448;51.660;5.824;2023-02-21T04:25:48;114.70;;;52.60;;
60502;SDS011;51448;51.660;5.824;2023-02-21T04:28:24;116.50;;;52.35;;
60502;SDS011;51448;51.660;5.824;2023-02-21T04:30:51;116.30;;;52.47;;
60502;SDS011;51448;51.660;5.824;2023-02-21T04:33:19;115.70;;;52.22;;
60502;SDS011;51448;51.660;5.824;2023-02-21T04:35:47;119.25;;;54.38;;
60502;SDS011;51448;51.660;5.824;2023-02-21T04:38:34;111.65;;;53.50;;
60502;SDS011;51448;51.660;5.824;2023-02-21T04:41:03;120.82;;;53.20;;
60502;SDS011;51448;51.660;5.824;2023-02-21T04:43:32;117.68;;;53.53;;
60502;SDS011;51448;51.660;5.824;2023-02-21T04:45:59;132.40;;;55.72;;
60502;SDS011;51448;51.660;5.824;2023-02-21T04:48:28;134.55;;;56.80;;
60502;SDS011;51448;51.660;5.824;2023-02-21T04:50:57;122.80;;;53.65;;
60502;SDS011;51448;51.660;5.824;2023-02-21T04:53:40;125.22;;;51.75;;
60502;SDS011;51448;51.660;5.824;2023-02-21T04:56:09;129.77;;;55.40;;
60502;SDS011;51448;51.660;5.824;2023-02-21T04:58:39;130.45;;;53.63;;
60502;SDS011;51448;51.660;5.824;2023-02-21T05:01:12;138.00;;;52.85;;
60502;SDS011;51448;51.660;5.824;2023-02-21T05:03:42;137.98;;;56.65;;
60502;SDS011;51448;51.660;5.824;2023-02-21T05:06:15;124.82;;;49.45;;
60502;SDS011;51448;51.660;5.824;2023-02-21T05:08:48;130.07;;;55.33;;
60502;SDS011;51448;51.660;5.824;2023-02-21T05:11:16;135.23;;;56.67;;
60502;SDS011;51448;51.660;5.824;2023-02-21T05:13:46;133.93;;;53.65;;
60502;SDS011;51448;51.660;5.824;2023-02-21T05:16:15;156.80;;;59.10;;
60502;SDS011;51448;51.660;5.824;2023-02-21T05:18:44;126.55;;;51.45;;
60502;SDS011;51448;51.660;5.824;2023-02-21T05:21:14;144.23;;;55.25;;
60502;SDS011;51448;51.660;5.824;2023-02-21T05:23:45;159.38;;;57.30;;
60502;SDS011;51448;51.660;5.824;2023-02-21T05:26:24;144.45;;;55.38;;
60502;SDS011;51448;51.660;5.824;2023-02-21T05:28:58;168.80;;;56.63;;
60502;SDS011;51448;51.660;5.824;2023-02-21T05:31:26;162.55;;;52.78;;
60502;SDS011;51448;51.660;5.824;2023-02-21T05:33:54;158.70;;;55.55;;
60502;SDS011;51448;51.660;5.824;2023-02-21T05:36:23;161.18;;;56.05;;
60502;SDS011;51448;51.660;5.824;2023-02-21T05:38:52;165.50;;;55.22;;
60502;SDS011;51448;51.660;5.824;2023-02-21T05:41:22;167.52;;;58.45;;
60502;SDS011;51448;51.660;5.824;2023-02-21T05:43:50;171.98;;;58.13;;
60502;SDS011;51448;51.660;5.824;2023-02-21T05:46:22;179.63;;;59.03;;
60502;SDS011;51448;51.660;5.824;2023-02-21T05:48:54;186.13;;;61.03;;
60502;SDS011;51448;51.660;5.824;2023-02-21T05:51:27;198.13;;;59.67;;
60502;SDS011;51448;51.660;5.824;2023-02-21T05:54:00;161.27;;;54.35;;
60502;SDS011;51448;51.660;5.824;2023-02-21T05:56:28;178.63;;;59.08;;
60502;SDS011;51448;51.660;5.824;2023-02-21T05:58:55;192.23;;;59.03;;
60502;SDS011;51448;51.660;5.824;2023-02-21T06:01:23;184.43;;;56.15;;
60502;SDS011;51448;51.660;5.824;2023-02-21T06:03:51;179.52;;;59.08;;
60502;SDS011;51448;51.660;5.824;2023-02-21T06:06:18;215.85;;;60.30;;
60502;SDS011;51448;51.660;5.824;2023-02-21T06:08:47;222.27;;;60.65;;
60502;SDS011;51448;51.660;5.824;2023-02-21T06:11:21;187.90;;;55.88;;
60502;SDS011;51448;51.660;5.824;2023-02-21T06:13:53;209.45;;;57.00;;
60502;SDS011;51448;51.660;5.824;2023-02-21T06:16:23;178.50;;;55.50;;
60502;SDS011;51448;51.660;5.824;2023-02-21T06:18:52;200.55;;;58.30;;
60502;SDS011;51448;51.660;5.824;2023-02-21T06:21:22;195.82;;;57.13;;
60502;SDS011;51448;51.660;5.824;2023-02-21T06:23:49;206.93;;;56.70;;
60502;SDS011;51448;51.660;5.824;2023-02-21T06:26:17;204.00;;;56.85;;
60502;SDS011;51448;51.660;5.824;2023-02-21T06:28:46;220.55;;;59.20;;
60502;SDS011;51448;51.660;5.824;2023-02-21T06:31:15;176.15;;;55.05;;
60502;SDS011;51448;51.660;5.824;2023-02-21T06:33:46;210.15;;;59.67;;
60502;SDS011;51448;51.660;5.824;2023-02-21T06:36:19;183.25;;;54.92;;
60502;SDS011;51448;51.660;5.824;2023-02-21T06:38:51;176.80;;;54.67;;
60502;SDS011;51448;51.660;5.824;2023-02-21T06:41:23;160.60;;;52.70;;
60502;SDS011;51448;51.660;5.824;2023-02-21T06:43:55;157.55;;;52.33;;
60502;SDS011;51448;51.660;5.824;2023-02-21T06:46:25;154.80;;;47.65;;
60502;SDS011;51448;51.660;5.824;2023-02-21T06:48:56;149.30;;;50.35;;
60502;SDS011;51448;51.660;5.824;2023-02-21T06:51:25;153.80;;;50.42;;
60502;SDS011;51448;51.660;5.824;2023-02-21T06:53:56;148.82;;;52.30;;
60502;SDS011;51448;51.660;5.824;2023-02-21T06:56:24;172.95;;;55.35;;
60502;SDS011;51448;51.660;5.824;2023-02-21T06:58:53;153.63;;;49.30;;
60502;SDS011;51448;51.660;5.824;2023-02-21T07:01:21;131.40;;;46.58;;
60502;SDS011;51448;51.660;5.824;2023-02-21T07:03:51;149.65;;;48.65;;
60502;SDS011;51448;51.660;5.824;2023-02-21T07:06:19;150.57;;;46.65;;
60502;SDS011;51448;51.660;5.824;2023-02-21T07:08:47;131.50;;;44.63;;
60502;SDS011;51448;51.660;5.824;2023-02-21T07:11:16;109.20;;;42.03;;
60502;SDS011;51448;51.660;5.824;2023-02-21T07:13:49;105.78;;;39.17;;
60502;SDS011;51448;51.660;5.824;2023-02-21T07:16:19;97.35;;;39.45;;
60502;SDS011;51448;51.660;5.824;2023-02-21T07:18:47;102.05;;;38.25;;
60502;SDS011;51448;51.660;5.824;2023-02-21T07:21:15;113.53;;;40.75;;
60502;SDS011;51448;51.660;5.824;2023-02-21T07:23:46;98.70;;;39.00;;
60502;SDS011;51448;51.660;5.824;2023-02-21T07:26:14;94.45;;;38.17;;
60502;SDS011;51448;51.660;5.824;2023-02-21T07:28:42;85.53;;;36.58;;
60502;SDS011;51448;51.660;5.824;2023-02-21T07:31:10;98.20;;;37.38;;
60502;SDS011;51448;51.660;5.824;2023-02-21T07:33:38;84.22;;;35.83;;
60502;SDS011;51448;51.660;5.824;2023-02-21T07:36:06;87.38;;;37.08;;
60502;SDS011;51448;51.660;5.824;2023-02-21T07:38:34;94.25;;;36.53;;
60502;SDS011;51448;51.660;5.824;2023-02-21T07:41:01;76.97;;;35.22;;
60502;SDS011;51448;51.660;5.824;2023-02-21T07:43:30;76.57;;;32.35;;
60502;SDS011;51448;51.660;5.824;2023-02-21T07:45:58;73.40;;;33.35;;
60502;SDS011;51448;51.660;5.824;2023-02-21T07:48:26;81.13;;;34.80;;
60502;SDS011;51448;51.660;5.824;2023-02-21T07:50:54;74.50;;;32.17;;
60502;SDS011;51448;51.660;5.824;2023-02-21T07:53:22;77.80;;;31.48;;
60502;SDS011;51448;51.660;5.824;2023-02-21T07:55:50;65.68;;;31.35;;
60502;SDS011;51448;51.660;5.824;2023-02-21T07:58:17;62.60;;;28.35;;
60502;SDS011;51448;51.660;5.824;2023-02-21T08:00:47;67.30;;;30.50;;
60502;SDS011;51448;51.660;5.824;2023-02-21T08:03:15;68.40;;;29.75;;
60502;SDS011;51448;51.660;5.824;2023-02-21T08:05:43;68.85;;;28.85;;
60502;SDS011;51448;51.660;5.824;2023-02-21T08:08:13;61.58;;;27.95;;
60502;SDS011;51448;51.660;5.824;2023-02-21T08:10:43;63.35;;;28.27;;
60502;SDS011;51448;51.660;5.824;2023-02-21T08:13:11;55.10;;;26.08;;
60502;SDS011;51448;51.660;5.824;2023-02-21T08:15:38;49.95;;;24.38;;
60502;SDS011;51448;51.660;5.824;2023-02-21T08:18:10;53.28;;;25.85;;
60502;SDS011;51448;51.660;5.824;2023-02-21T08:20:45;54.88;;;26.13;;
60502;SDS011;51448;51.660;5.824;2023-02-21T08:23:13;60.10;;;26.75;;
60502;SDS011;51448;51.660;5.824;2023-02-21T08:25:41;49.08;;;23.98;;
60502;SDS011;51448;51.660;5.824;2023-02-21T08:28:09;46.35;;;22.60;;
60502;SDS011;51448;51.660;5.824;2023-02-21T08:30:37;51.15;;;24.00;;
60502;SDS011;51448;51.660;5.824;2023-02-21T08:33:05;43.10;;;22.73;;
60502;SDS011;51448;51.660;5.824;2023-02-21T08:35:33;49.20;;;23.25;;
60502;SDS011;51448;51.660;5.824;2023-02-21T08:38:01;44.83;;;23.25;;
60502;SDS011;51448;51.660;5.824;2023-02-21T08:40:32;49.20;;;23.25;;
60502;SDS011;51448;51.660;5.824;2023-02-21T08:43:00;44.50;;;22.20;;
60502;SDS011;51448;51.660;5.824;2023-02-21T08:45:28;45.47;;;22.73;;
60502;SDS011;51448;51.660;5.824;2023-02-21T08:47:57;42.92;;;21.50;;
60502;SDS011;51448;51.660;5.824;2023-02-21T08:50:26;44.72;;;21.88;;
60502;SDS011;51448;51.660;5.824;2023-02-21T08:52:55;43.33;;;21.25;;
60502;SDS011;51448;51.660;5.824;2023-02-21T08:55:23;40.08;;;21.50;;
60502;SDS011;51448;51.660;5.824;2023-02-21T08:57:52;45.35;;;22.20;;
60502;SDS011;51448;51.660;5.824;2023-02-21T09:00:22;49.00;;;22.80;;
60502;SDS011;51448;51.660;5.824;2023-02-21T09:02:55;45.25;;;22.02;;
60502;SDS011;51448;51.660;5.824;2023-02-21T09:05:25;48.33;;;23.95;;
60502;SDS011;51448;51.660;5.824;2023-02-21T09:07:57;44.63;;;22.08;;
60502;SDS011;51448;51.660;5.824;2023-02-21T09:10:28;49.92;;;22.35;;
60502;SDS011;51448;51.660;5.824;2023-02-21T09:13:00;45.30;;;22.88;;
60502;SDS011;51448;51.660;5.824;2023-02-21T09:15:30;46.45;;;22.80;;
60502;SDS011;51448;51.660;5.824;2023-02-21T09:17:58;42.70;;;21.10;;
60502;SDS011;51448;51.660;5.824;2023-02-21T09:20:27;44.28;;;21.85;;
60502;SDS011;51448;51.660;5.824;2023-02-21T09:22:54;41.70;;;20.60;;
60502;SDS011;51448;51.660;5.824;2023-02-21T09:25:23;42.75;;;20.85;;
60502;SDS011;51448;51.660;5.824;2023-02-21T09:27:52;38.33;;;19.50;;
60502;SDS011;51448;51.660;5.824;2023-02-21T09:30:22;40.42;;;20.50;;
60502;SDS011;51448;51.660;5.824;2023-02-21T09:32:54;37.92;;;18.88;;
60502;SDS011;51448;51.660;5.824;2023-02-21T09:35:22;36.55;;;19.77;;
60502;SDS011;51448;51.660;5.824;2023-02-21T09:37:50;37.17;;;18.67;;
60502;SDS011;51448;51.660;5.824;2023-02-21T09:43:17;36.25;;;18.15;;
60502;SDS011;51448;51.660;5.824;2023-02-21T09:46:05;33.15;;;18.55;;
60502;SDS011;51448;51.660;5.824;2023-02-21T09:48:44;35.72;;;18.50;;
60502;SDS011;51448;51.660;5.824;2023-02-21T09:51:13;33.92;;;17.80;;
60502;SDS011;51448;51.660;5.824;2023-02-21T09:53:43;35.80;;;17.50;;
60502;SDS011;51448;51.660;5.824;2023-02-21T09:59:03;34.97;;;18.90;;
60502;SDS011;51448;51.660;5.824;2023-02-21T10:07:58;33.58;;;18.90;;
60502;SDS011;51448;51.660;5.824;2023-02-21T10:11:16;34.78;;;19.00;;
60502;SDS011;51448;51.660;5.824;2023-02-21T10:14:01;35.45;;;18.55;;
60502;SDS011;51448;51.660;5.824;2023-02-21T10:16:42;35.38;;;19.42;;
60502;SDS011;51448;51.660;5.824;2023-02-21T10:20:13;32.47;;;18.45;;
60502;SDS011;51448;51.660;5.824;2023-02-21T10:22:49;36.25;;;20.85;;
60502;SDS011;51448;51.660;5.824;2023-02-21T10:25:24;38.13;;;21.40;;
60502;SDS011;51448;51.660;5.824;2023-02-21T10:27:57;39.80;;;21.35;;
60502;SDS011;51448;51.660;5.824;2023-02-21T10:30:28;36.15;;;20.02;;
60502;SDS011;51448;51.660;5.824;2023-02-21T10:33:04;38.58;;;20.95;;
60502;SDS011;51448;51.660;5.824;2023-02-21T10:35:32;33.35;;;18.35;;
60502;SDS011;51448;51.660;5.824;2023-02-21T10:38:03;32.70;;;18.75;;
60502;SDS011;51448;51.660;5.824;2023-02-21T10:40:42;34.13;;;19.92;;
60502;SDS011;51448;51.660;5.824;2023-02-21T10:46:30;32.75;;;18.85;;
60502;SDS011;51448;51.660;5.824;2023-02-21T10:49:32;30.08;;;18.67;;
60502;SDS011;51448;51.660;5.824;2023-02-21T10:52:08;30.05;;;18.00;;
60502;SDS011;51448;51.660;5.824;2023-02-21T10:55:28;30.33;;;17.85;;
60502;SDS011;51448;51.660;5.824;2023-02-21T10:58:04;31.95;;;18.08;;
60502;SDS011;51448;51.660;5.824;2023-02-21T11:00:38;29.15;;;17.85;;
60502;SDS011;51448;51.660;5.824;2023-02-21T11:03:20;26.70;;;16.20;;
60502;SDS011;51448;51.660;5.824;2023-02-21T11:05:55;24.17;;;15.38;;
60502;SDS011;51448;51.660;5.824;2023-02-21T11:08:35;28.98;;;16.60;;
60502;SDS011;51448;51.660;5.824;2023-02-21T11:11:06;24.20;;;15.35;;
60502;SDS011;51448;51.660;5.824;2023-02-21T11:13:34;26.00;;;16.30;;
60502;SDS011;51448;51.660;5.824;2023-02-21T11:18:43;27.17;;;16.45;;
60502;SDS011;51448;51.660;5.824;2023-02-21T11:21:15;25.80;;;16.27;;
60502;SDS011;51448;51.660;5.824;2023-02-21T11:23:53;27.45;;;16.95;;
60502;SDS011;51448;51.660;5.824;2023-02-21T11:26:30;29.30;;;17.98;;
60502;SDS011;51448;51.660;5.824;2023-02-21T11:29:14;31.00;;;17.85;;
60502;SDS011;51448;51.660;5.824;2023-02-21T11:31:50;28.73;;;17.75;;
60502;SDS011;51448;51.660;5.824;2023-02-21T11:34:20;25.67;;;16.55;;
60502;SDS011;51448;51.660;5.824;2023-02-21T11:37:01;29.23;;;16.55;;
60502;SDS011;51448;51.660;5.824;2023-02-21T11:39:31;25.35;;;15.75;;
60502;SDS011;51448;51.660;5.824;2023-02-21T11:42:02;27.02;;;16.08;;
60502;SDS011;51448;51.660;5.824;2023-02-21T11:44:49;24.15;;;15.30;;
60502;SDS011;51448;51.660;5.824;2023-02-21T11:47:56;23.42;;;14.18;;
60502;SDS011;51448;51.660;5.824;2023-02-21T11:50:33;23.45;;;15.20;;
60502;SDS011;51448;51.660;5.824;2023-02-21T11:53:23;24.42;;;15.43;;
60502;SDS011;51448;51.660;5.824;2023-02-21T11:59:05;26.50;;;16.45;;
60502;SDS011;51448;51.660;5.824;2023-02-21T12:05:12;25.58;;;15.98;;
60502;SDS011;51448;51.660;5.824;2023-02-21T12:11:04;25.80;;;16.38;;
60502;SDS011;51448;51.660;5.824;2023-02-21T12:28:16;23.87;;;15.37;;
60502;SDS011;51448;51.660;5.824;2023-02-21T12:31:16;23.65;;;15.23;;
60502;SDS011;51448;51.660;5.824;2023-02-21T12:34:29;22.33;;;13.93;;
60502;SDS011;51448;51.660;5.824;2023-02-21T12:52:18;23.80;;;14.55;;
60502;SDS011;51448;51.660;5.824;2023-02-21T12:54:57;21.52;;;14.85;;
60502;SDS011;51448;51.660;5.824;2023-02-21T12:57:50;21.55;;;14.32;;
60502;SDS011;51448;51.660;5.824;2023-02-21T13:00:27;22.05;;;13.55;;
60502;SDS011;51448;51.660;5.824;2023-02-21T13:06:33;22.60;;;13.48;;
60502;SDS011;51448;51.660;5.824;2023-02-21T13:09:16;23.33;;;13.75;;
60502;SDS011;51448;51.660;5.824;2023-02-21T13:12:06;19.05;;;12.75;;
60502;SDS011;51448;51.660;5.824;2023-02-21T13:14:42;19.88;;;13.50;;
60502;SDS011;51448;51.660;5.824;2023-02-21T13:17:16;20.92;;;13.27;;
60502;SDS011;51448;51.660;5.824;2023-02-21T13:22:21;20.63;;;13.23;;
60502;SDS011;51448;51.660;5.824;2023-02-21T13:28:27;18.10;;;12.30;;
60502;SDS011;51448;51.660;5.824;2023-02-21T13:30:58;17.42;;;12.30;;
60502;SDS011;51448;51.660;5.824;2023-02-21T13:36:19;17.20;;;11.60;;
60502;SDS011;51448;51.660;5.824;2023-02-21T13:41:37;15.95;;;10.45;;
60502;SDS011;51448;51.660;5.824;2023-02-21T13:44:24;16.75;;;11.65;;
60502;SDS011;51448;51.660;5.824;2023-02-21T13:46:59;16.65;;;11.63;;
60502;SDS011;51448;51.660;5.824;2023-02-21T13:49:44;16.73;;;11.15;;
60502;SDS011;51448;51.660;5.824;2023-02-21T14:03:04;16.85;;;11.60;;
60502;SDS011;51448;51.660;5.824;2023-02-21T14:08:27;15.45;;;10.85;;
60502;SDS011;51448;51.660;5.824;2023-02-21T14:19:22;16.67;;;11.32;;
60502;SDS011;51448;51.660;5.824;2023-02-21T14:24:31;17.60;;;11.02;;
60502;SDS011;51448;51.660;5.824;2023-02-21T14:29:38;16.50;;;11.15;;
60502;SDS011;51448;51.660;5.824;2023-02-21T14:37:18;15.57;;;9.98;;
60502;SDS011;51448;51.660;5.824;2023-02-21T14:39:51;15.70;;;9.98;;
60502;SDS011;51448;51.660;5.824;2023-02-21T14:46:04;15.23;;;10.15;;
60502;SDS011;51448;51.660;5.824;2023-02-21T15:06:42;15.38;;;10.07;;
60502;SDS011;51448;51.660;5.824;2023-02-21T15:09:25;17.45;;;11.93;;
60502;SDS011;51448;51.660;5.824;2023-02-21T15:11:53;16.73;;;11.88;;
60502;SDS011;51448;51.660;5.824;2023-02-21T15:14:24;14.63;;;10.23;;
60502;SDS011;51448;51.660;5.824;2023-02-21T15:16:56;17.92;;;11.32;;
60502;SDS011;51448;51.660;5.824;2023-02-21T15:19:31;16.42;;;10.98;;
60502;SDS011;51448;51.660;5.824;2023-02-21T15:22:19;17.08;;;11.40;;
60502;SDS011;51448;51.660;5.824;2023-02-21T15:30:21;18.02;;;12.43;;
60502;SDS011;51448;51.660;5.824;2023-02-21T15:33:09;16.40;;;11.07;;
60502;SDS011;51448;51.660;5.824;2023-02-21T15:35:53;17.23;;;11.38;;
60502;SDS011;51448;51.660;5.824;2023-02-21T15:44:28;17.10;;;11.32;;
60502;SDS011;51448;51.660;5.824;2023-02-21T15:47:03;17.23;;;11.82;;
60502;SDS011;51448;51.660;5.824;2023-02-21T15:52:40;16.33;;;11.15;;
60502;SDS011;51448;51.660;5.824;2023-02-21T15:57:46;18.55;;;12.07;;
60502;SDS011;51448;51.660;5.824;2023-02-21T16:00:42;17.15;;;11.70;;
60502;SDS011;51448;51.660;5.824;2023-02-21T16:03:29;19.52;;;12.50;;
60502;SDS011;51448;51.660;5.824;2023-02-21T16:06:17;20.02;;;12.68;;
60502;SDS011;51448;51.660;5.824;2023-02-21T16:11:43;18.58;;;12.18;;
60502;SDS011;51448;51.660;5.824;2023-02-21T16:14:21;18.77;;;12.65;;
60502;SDS011;51448;51.660;5.824;2023-02-21T16:20:11;19.15;;;12.95;;
60502;SDS011;51448;51.660;5.824;2023-02-21T16:28:35;22.42;;;14.23;;
60502;SDS011;51448;51.660;5.824;2023-02-21T16:31:08;21.35;;;14.68;;
60502;SDS011;51448;51.660;5.824;2023-02-21T16:33:50;21.70;;;13.70;;
60502;SDS011;51448;51.660;5.824;2023-02-21T16:36:28;18.95;;;12.38;;
60502;SDS011;51448;51.660;5.824;2023-02-21T16:38:58;20.65;;;13.63;;
60502;SDS011;51448;51.660;5.824;2023-02-21T16:41:26;20.17;;;13.52;;
60502;SDS011;51448;51.660;5.824;2023-02-21T16:43:53;20.60;;;13.32;;
60502;SDS011;51448;51.660;5.824;2023-02-21T16:46:22;21.60;;;13.45;;
60502;SDS011;51448;51.660;5.824;2023-02-21T16:48:56;20.63;;;14.27;;
60502;SDS011;51448;51.660;5.824;2023-02-21T16:51:25;19.85;;;13.48;;
60502;SDS011;51448;51.660;5.824;2023-02-21T16:54:00;21.65;;;13.65;;
60502;SDS011;51448;51.660;5.824;2023-02-21T16:56:29;21.77;;;14.20;;
60502;SDS011;51448;51.660;5.824;2023-02-21T16:58:56;20.73;;;13.80;;
60502;SDS011;51448;51.660;5.824;2023-02-21T17:01:28;23.73;;;14.65;;
60502;SDS011;51448;51.660;5.824;2023-02-21T17:03:59;24.33;;;14.32;;
60502;SDS011;51448;51.660;5.824;2023-02-21T17:06:28;22.35;;;14.55;;
60502;SDS011;51448;51.660;5.824;2023-02-21T17:08:56;24.40;;;15.45;;
60502;SDS011;51448;51.660;5.824;2023-02-21T17:11:25;21.42;;;14.65;;
60502;SDS011;51448;51.660;5.824;2023-02-21T17:13:52;23.13;;;14.93;;
60502;SDS011;51448;51.660;5.824;2023-02-21T17:16:20;21.80;;;14.18;;
60502;SDS011;51448;51.660;5.824;2023-02-21T17:18:48;21.55;;;14.73;;
60502;SDS011;51448;51.660;5.824;2023-02-21T17:21:15;23.52;;;14.93;;
60502;SDS011;51448;51.660;5.824;2023-02-21T17:23:44;23.02;;;14.50;;
60502;SDS011;51448;51.660;5.824;2023-02-21T17:26:11;23.92;;;16.05;;
60502;SDS011;51448;51.660;5.824;2023-02-21T17:28:39;22.73;;;15.07;;
60502;SDS011;51448;51.660;5.824;2023-02-21T17:31:16;22.85;;;14.68;;
60502;SDS011;51448;51.660;5.824;2023-02-21T17:33:45;22.00;;;14.43;;
60502;SDS011;51448;51.660;5.824;2023-02-21T17:36:16;25.20;;;15.10;;
60502;SDS011;51448;51.660;5.824;2023-02-21T17:38:45;23.80;;;14.93;;
60502;SDS011;51448;51.660;5.824;2023-02-21T17:41:13;24.25;;;14.45;;
60502;SDS011;51448;51.660;5.824;2023-02-21T17:43:42;25.63;;;16.33;;
60502;SDS011;51448;51.660;5.824;2023-02-21T17:46:13;22.92;;;16.38;;
60502;SDS011;51448;51.660;5.824;2023-02-21T17:48:43;24.95;;;17.40;;
60502;SDS011;51448;51.660;5.824;2023-02-21T17:51:21;23.42;;;16.13;;
60502;SDS011;51448;51.660;5.824;2023-02-21T17:53:52;22.95;;;15.68;;
60502;SDS011;51448;51.660;5.824;2023-02-21T17:56:21;23.92;;;15.98;;
60502;SDS011;51448;51.660;5.824;2023-02-21T17:58:50;26.10;;;16.55;;
60502;SDS011;51448;51.660;5.824;2023-02-21T18:01:19;25.85;;;17.65;;
60502;SDS011;51448;51.660;5.824;2023-02-21T18:03:47;22.90;;;16.25;;
60502;SDS011;51448;51.660;5.824;2023-02-21T18:06:15;23.65;;;17.25;;
60502;SDS011;51448;51.660;5.824;2023-02-21T18:08:44;24.35;;;17.55;;
60502;SDS011;51448;51.660;5.824;2023-02-21T18:11:14;25.17;;;17.63;;
60502;SDS011;51448;51.660;5.824;2023-02-21T18:13:44;24.00;;;17.15;;
60502;SDS011;51448;51.660;5.824;2023-02-21T18:16:13;25.98;;;17.67;;